sensor_id;sensor_type;location;lat;lon;timestamp;temperature;humidity
20066;DHT22;10193;48.884;9.182;2022-10-31T00:01:23;15.40;71.80
20066;DHT22;10193;48.884;9.182;2022-10-31T00:03:50;15.40;71.90
20066;DHT22;10193;48.884;9.182;2022-10-31T00:06:18;15.40;71.90
20066;DHT22;10193;48.884;9.182;2022-10-31T00:08:45;15.40;71.90
20066;DHT22;10193;48.884;9.182;2022-10-31T00:11:12;15.40;72.00
20066;DHT22;10193;48.884;9.182;2022-10-31T00:13:39;15.30;71.90
20066;DHT22;10193;48.884;9.182;2022-10-31T00:16:13;15.30;72.00
20066;DHT22;10193;48.884;9.182;2022-10-31T00:18:39;15.30;72.40
20066;DHT22;10193;48.884;9.182;2022-10-31T00:21:06;15.30;72.20
20066;DHT22;10193;48.884;9.182;2022-10-31T00:23:34;15.20;72.20
20066;DHT22;10193;48.884;9.182;2022-10-31T00:26:01;15.20;72.40
20066;DHT22;10193;48.884;9.182;2022-10-31T00:28:28;15.20;72.40
20066;DHT22;10193;48.884;9.182;2022-10-31T00:30:58;15.20;72.50
20066;DHT22;10193;48.884;9.182;2022-10-31T00:33:25;15.20;72.60
20066;DHT22;10193;48.884;9.182;2022-10-31T00:35:51;15.20;72.50
20066;DHT22;10193;48.884;9.182;2022-10-31T00:38:18;15.20;72.50
20066;DHT22;10193;48.884;9.182;2022-10-31T00:40:46;15.10;72.40
20066;DHT22;10193;48.884;9.182;2022-10-31T00:43:13;15.10;72.50
20066;DHT22;10193;48.884;9.182;2022-10-31T00:45:41;15.10;72.60
20066;DHT22;10193;48.884;9.182;2022-10-31T00:48:07;15.10;72.60
20066;DHT22;10193;48.884;9.182;2022-10-31T00:50:34;15.10;72.80
20066;DHT22;10193;48.884;9.182;2022-10-31T00:53:01;15.00;72.60
20066;DHT22;10193;48.884;9.182;2022-10-31T00:55:28;15.00;72.60
20066;DHT22;10193;48.884;9.182;2022-10-31T00:57:56;15.00;72.60
20066;DHT22;10193;48.884;9.182;2022-10-31T01:00:22;14.90;72.70
20066;DHT22;10193;48.884;9.182;2022-10-31T01:02:49;14.90;72.70
20066;DHT22;10193;48.884;9.182;2022-10-31T01:05:16;14.90;72.80
20066;DHT22;10193;48.884;9.182;2022-10-31T01:07:43;14.90;72.80
20066;DHT22;10193;48.884;9.182;2022-10-31T01:10:10;14.90;72.80
20066;DHT22;10193;48.884;9.182;2022-10-31T01:12:37;14.80;72.80
20066;DHT22;10193;48.884;9.182;2022-10-31T01:15:07;14.80;72.90
20066;DHT22;10193;48.884;9.182;2022-10-31T01:17:34;14.80;73.00
20066;DHT22;10193;48.884;9.182;2022-10-31T01:20:01;14.80;73.00
20066;DHT22;10193;48.884;9.182;2022-10-31T01:22:28;14.70;72.90
20066;DHT22;10193;48.884;9.182;2022-10-31T01:24:55;14.70;72.80
20066;DHT22;10193;48.884;9.182;2022-10-31T01:27:21;14.70;72.80
20066;DHT22;10193;48.884;9.182;2022-10-31T01:29:48;14.70;72.90
20066;DHT22;10193;48.884;9.182;2022-10-31T01:32:16;14.60;72.90
20066;DHT22;10193;48.884;9.182;2022-10-31T01:34:43;14.60;72.90
20066;DHT22;10193;48.884;9.182;2022-10-31T01:37:09;14.60;73.00
20066;DHT22;10193;48.884;9.182;2022-10-31T01:39:36;14.60;73.10
20066;DHT22;10193;48.884;9.182;2022-10-31T01:42:03;14.50;73.00
20066;DHT22;10193;48.884;9.182;2022-10-31T01:44:52;14.50;73.00
20066;DHT22;10193;48.884;9.182;2022-10-31T01:47:26;14.50;73.50
20066;DHT22;10193;48.884;9.182;2022-10-31T01:49:57;14.40;73.30
20066;DHT22;10193;48.884;9.182;2022-10-31T01:52:28;14.40;73.30
20066;DHT22;10193;48.884;9.182;2022-10-31T01:54:59;14.40;73.40
20066;DHT22;10193;48.884;9.182;2022-10-31T01:57:28;14.40;73.60
20066;DHT22;10193;48.884;9.182;2022-10-31T01:59:58;14.40;73.60
20066;DHT22;10193;48.884;9.182;2022-10-31T02:02:27;14.40;73.70
20066;DHT22;10193;48.884;9.182;2022-10-31T02:04:56;14.40;73.70
20066;DHT22;10193;48.884;9.182;2022-10-31T02:07:26;14.40;73.80
20066;DHT22;10193;48.884;9.182;2022-10-31T02:09:55;14.40;73.80
20066;DHT22;10193;48.884;9.182;2022-10-31T02:12:23;14.40;73.90
20066;DHT22;10193;48.884;9.182;2022-10-31T02:14:50;14.40;73.90
20066;DHT22;10193;48.884;9.182;2022-10-31T02:17:17;14.40;73.90
20066;DHT22;10193;48.884;9.182;2022-10-31T02:19:50;14.40;73.90
20066;DHT22;10193;48.884;9.182;2022-10-31T02:22:23;14.40;74.20
20066;DHT22;10193;48.884;9.182;2022-10-31T02:25:15;14.40;74.20
20066;DHT22;10193;48.884;9.182;2022-10-31T02:28:06;14.40;74.50
20066;DHT22;10193;48.884;9.182;2022-10-31T02:30:41;14.40;74.30
20066;DHT22;10193;48.884;9.182;2022-10-31T02:33:20;14.40;74.00
20066;DHT22;10193;48.884;9.182;2022-10-31T02:35:55;14.40;74.30
20066;DHT22;10193;48.884;9.182;2022-10-31T02:38:38;14.40;74.20
20066;DHT22;10193;48.884;9.182;2022-10-31T02:41:12;14.40;74.40
20066;DHT22;10193;48.884;9.182;2022-10-31T02:43:48;14.50;74.30
20066;DHT22;10193;48.884;9.182;2022-10-31T02:46:23;14.40;74.10
20066;DHT22;10193;48.884;9.182;2022-10-31T02:48:55;14.40;74.10
20066;DHT22;10193;48.884;9.182;2022-10-31T02:51:24;14.30;73.90
20066;DHT22;10193;48.884;9.182;2022-10-31T02:53:51;14.40;74.00
20066;DHT22;10193;48.884;9.182;2022-10-31T02:56:19;14.30;73.90
20066;DHT22;10193;48.884;9.182;2022-10-31T02:58:48;14.30;73.90
20066;DHT22;10193;48.884;9.182;2022-10-31T03:01:28;14.30;74.00
20066;DHT22;10193;48.884;9.182;2022-10-31T03:04:16;14.30;74.30
20066;DHT22;10193;48.884;9.182;2022-10-31T03:06:52;14.30;74.30
20066;DHT22;10193;48.884;9.182;2022-10-31T03:09:24;14.30;74.20
20066;DHT22;10193;48.884;9.182;2022-10-31T03:11:57;14.30;73.90
20066;DHT22;10193;48.884;9.182;2022-10-31T03:14:28;14.20;73.90
20066;DHT22;10193;48.884;9.182;2022-10-31T03:17:00;14.20;73.90
20066;DHT22;10193;48.884;9.182;2022-10-31T03:19:34;14.20;74.10
20066;DHT22;10193;48.884;9.182;2022-10-31T03:22:07;14.20;74.20
20066;DHT22;10193;48.884;9.182;2022-10-31T03:24:38;14.20;74.30
20066;DHT22;10193;48.884;9.182;2022-10-31T03:27:07;14.20;74.30
20066;DHT22;10193;48.884;9.182;2022-10-31T03:29:36;14.20;74.20
20066;DHT22;10193;48.884;9.182;2022-10-31T03:32:06;14.10;74.10
20066;DHT22;10193;48.884;9.182;2022-10-31T03:34:37;14.20;74.20
20066;DHT22;10193;48.884;9.182;2022-10-31T03:37:06;14.10;74.20
20066;DHT22;10193;48.884;9.182;2022-10-31T03:39:34;14.10;74.20
20066;DHT22;10193;48.884;9.182;2022-10-31T03:42:05;14.10;74.60
20066;DHT22;10193;48.884;9.182;2022-10-31T03:44:33;14.10;74.20
20066;DHT22;10193;48.884;9.182;2022-10-31T03:47:02;14.00;74.10
20066;DHT22;10193;48.884;9.182;2022-10-31T03:49:30;14.10;74.20
20066;DHT22;10193;48.884;9.182;2022-10-31T03:52:02;14.00;74.10
20066;DHT22;10193;48.884;9.182;2022-10-31T03:54:33;14.00;74.20
20066;DHT22;10193;48.884;9.182;2022-10-31T03:57:06;14.00;74.20
20066;DHT22;10193;48.884;9.182;2022-10-31T03:59:36;14.00;74.20
20066;DHT22;10193;48.884;9.182;2022-10-31T04:02:13;14.00;74.20
20066;DHT22;10193;48.884;9.182;2022-10-31T04:04:42;14.00;74.20
20066;DHT22;10193;48.884;9.182;2022-10-31T04:07:12;14.00;74.20
20066;DHT22;10193;48.884;9.182;2022-10-31T04:09:43;13.90;74.10
20066;DHT22;10193;48.884;9.182;2022-10-31T04:12:12;13.90;74.00
20066;DHT22;10193;48.884;9.182;2022-10-31T04:14:42;13.90;74.10
20066;DHT22;10193;48.884;9.182;2022-10-31T04:17:13;13.90;74.10
20066;DHT22;10193;48.884;9.182;2022-10-31T04:19:41;13.90;74.20
20066;DHT22;10193;48.884;9.182;2022-10-31T04:22:07;13.80;74.10
20066;DHT22;10193;48.884;9.182;2022-10-31T04:24:36;13.90;74.20
20066;DHT22;10193;48.884;9.182;2022-10-31T04:27:04;13.80;74.10
20066;DHT22;10193;48.884;9.182;2022-10-31T04:29:31;13.80;74.10
20066;DHT22;10193;48.884;9.182;2022-10-31T04:31:57;13.80;74.20
20066;DHT22;10193;48.884;9.182;2022-10-31T04:34:24;13.70;74.10
20066;DHT22;10193;48.884;9.182;2022-10-31T04:36:51;13.70;74.10
20066;DHT22;10193;48.884;9.182;2022-10-31T04:39:17;13.70;74.20
20066;DHT22;10193;48.884;9.182;2022-10-31T04:41:45;13.70;74.20
20066;DHT22;10193;48.884;9.182;2022-10-31T04:44:12;13.70;74.30
20066;DHT22;10193;48.884;9.182;2022-10-31T04:46:38;13.60;74.10
20066;DHT22;10193;48.884;9.182;2022-10-31T04:49:05;13.60;74.00
20066;DHT22;10193;48.884;9.182;2022-10-31T04:51:32;13.60;74.00
20066;DHT22;10193;48.884;9.182;2022-10-31T04:53:58;13.60;74.00
20066;DHT22;10193;48.884;9.182;2022-10-31T04:56:25;13.60;74.00
20066;DHT22;10193;48.884;9.182;2022-10-31T04:58:53;13.50;74.00
20066;DHT22;10193;48.884;9.182;2022-10-31T05:01:19;13.50;74.10
20066;DHT22;10193;48.884;9.182;2022-10-31T05:03:46;13.50;74.10
20066;DHT22;10193;48.884;9.182;2022-10-31T05:06:13;13.40;73.90
20066;DHT22;10193;48.884;9.182;2022-10-31T05:08:39;13.40;73.90
20066;DHT22;10193;48.884;9.182;2022-10-31T05:11:06;13.40;74.00
20066;DHT22;10193;48.884;9.182;2022-10-31T05:13:33;13.40;74.10
20066;DHT22;10193;48.884;9.182;2022-10-31T05:16:00;13.40;75.00
20066;DHT22;10193;48.884;9.182;2022-10-31T05:18:28;13.30;74.20
20066;DHT22;10193;48.884;9.182;2022-10-31T05:20:55;13.40;74.30
20066;DHT22;10193;48.884;9.182;2022-10-31T05:23:21;13.30;74.20
20066;DHT22;10193;48.884;9.182;2022-10-31T05:25:48;13.30;74.20
20066;DHT22;10193;48.884;9.182;2022-10-31T05:28:15;13.30;74.20
20066;DHT22;10193;48.884;9.182;2022-10-31T05:30:41;13.30;74.20
20066;DHT22;10193;48.884;9.182;2022-10-31T05:33:09;13.30;74.10
20066;DHT22;10193;48.884;9.182;2022-10-31T05:35:36;13.30;74.10
20066;DHT22;10193;48.884;9.182;2022-10-31T05:38:02;13.30;74.10
20066;DHT22;10193;48.884;9.182;2022-10-31T05:40:29;13.20;74.00
20066;DHT22;10193;48.884;9.182;2022-10-31T05:42:56;13.20;74.10
20066;DHT22;10193;48.884;9.182;2022-10-31T05:45:24;13.20;74.10
20066;DHT22;10193;48.884;9.182;2022-10-31T05:47:52;13.20;74.10
20066;DHT22;10193;48.884;9.182;2022-10-31T05:50:20;13.20;74.10
20066;DHT22;10193;48.884;9.182;2022-10-31T05:52:53;13.10;74.10
20066;DHT22;10193;48.884;9.182;2022-10-31T05:55:20;13.10;74.00
20066;DHT22;10193;48.884;9.182;2022-10-31T05:57:46;13.10;74.10
20066;DHT22;10193;48.884;9.182;2022-10-31T06:00:13;13.10;74.10
20066;DHT22;10193;48.884;9.182;2022-10-31T06:02:40;13.10;74.10
20066;DHT22;10193;48.884;9.182;2022-10-31T06:05:07;13.00;74.10
20066;DHT22;10193;48.884;9.182;2022-10-31T06:07:35;13.00;74.20
20066;DHT22;10193;48.884;9.182;2022-10-31T06:10:04;13.00;74.20
20066;DHT22;10193;48.884;9.182;2022-10-31T06:12:31;13.00;74.30
20066;DHT22;10193;48.884;9.182;2022-10-31T06:15:03;13.00;74.30
20066;DHT22;10193;48.884;9.182;2022-10-31T06:17:30;13.00;74.30
20066;DHT22;10193;48.884;9.182;2022-10-31T06:19:57;13.00;74.30
20066;DHT22;10193;48.884;9.182;2022-10-31T06:22:23;13.00;74.50
20066;DHT22;10193;48.884;9.182;2022-10-31T06:24:51;12.90;74.30
20066;DHT22;10193;48.884;9.182;2022-10-31T06:27:18;12.90;74.40
20066;DHT22;10193;48.884;9.182;2022-10-31T06:29:45;12.90;74.50
20066;DHT22;10193;48.884;9.182;2022-10-31T06:32:12;12.90;74.60
20066;DHT22;10193;48.884;9.182;2022-10-31T06:34:39;12.90;74.70
20066;DHT22;10193;48.884;9.182;2022-10-31T06:37:06;12.90;74.80
20066;DHT22;10193;48.884;9.182;2022-10-31T06:39:33;12.90;75.00
20066;DHT22;10193;48.884;9.182;2022-10-31T06:42:01;12.90;75.00
20066;DHT22;10193;48.884;9.182;2022-10-31T06:44:27;13.00;75.10
20066;DHT22;10193;48.884;9.182;2022-10-31T06:46:54;12.90;75.20
20066;DHT22;10193;48.884;9.182;2022-10-31T06:49:21;13.00;75.30
20066;DHT22;10193;48.884;9.182;2022-10-31T06:51:48;13.00;75.30
20066;DHT22;10193;48.884;9.182;2022-10-31T06:54:14;13.10;75.50
20066;DHT22;10193;48.884;9.182;2022-10-31T06:56:41;13.10;75.40
20066;DHT22;10193;48.884;9.182;2022-10-31T06:59:09;13.10;75.40
20066;DHT22;10193;48.884;9.182;2022-10-31T07:01:36;13.10;75.50
20066;DHT22;10193;48.884;9.182;2022-10-31T07:04:03;13.20;75.60
20066;DHT22;10193;48.884;9.182;2022-10-31T07:06:29;13.20;75.70
20066;DHT22;10193;48.884;9.182;2022-10-31T07:08:56;13.20;75.70
20066;DHT22;10193;48.884;9.182;2022-10-31T07:11:22;13.20;75.70
20066;DHT22;10193;48.884;9.182;2022-10-31T07:13:49;13.30;75.70
20066;DHT22;10193;48.884;9.182;2022-10-31T07:16:17;13.30;75.70
20066;DHT22;10193;48.884;9.182;2022-10-31T07:18:44;13.30;75.70
20066;DHT22;10193;48.884;9.182;2022-10-31T07:21:10;13.40;75.80
20066;DHT22;10193;48.884;9.182;2022-10-31T07:23:37;13.40;75.90
20066;DHT22;10193;48.884;9.182;2022-10-31T07:26:04;13.40;75.90
20066;DHT22;10193;48.884;9.182;2022-10-31T07:28:30;13.50;75.90
20066;DHT22;10193;48.884;9.182;2022-10-31T07:30:57;13.50;75.90
20066;DHT22;10193;48.884;9.182;2022-10-31T07:33:26;13.50;75.80
20066;DHT22;10193;48.884;9.182;2022-10-31T07:35:53;13.60;75.90
20066;DHT22;10193;48.884;9.182;2022-10-31T07:38:20;13.60;75.90
20066;DHT22;10193;48.884;9.182;2022-10-31T07:40:50;13.60;75.90
20066;DHT22;10193;48.884;9.182;2022-10-31T07:43:17;13.70;76.10
20066;DHT22;10193;48.884;9.182;2022-10-31T07:45:43;13.70;76.10
20066;DHT22;10193;48.884;9.182;2022-10-31T07:48:10;13.80;76.30
20066;DHT22;10193;48.884;9.182;2022-10-31T07:50:38;13.80;76.20
20066;DHT22;10193;48.884;9.182;2022-10-31T07:53:06;13.80;76.30
20066;DHT22;10193;48.884;9.182;2022-10-31T07:55:33;13.90;76.40
20066;DHT22;10193;48.884;9.182;2022-10-31T07:58:02;14.00;76.50
20066;DHT22;10193;48.884;9.182;2022-10-31T08:00:30;14.00;76.50
20066;DHT22;10193;48.884;9.182;2022-10-31T08:02:58;14.00;76.50
20066;DHT22;10193;48.884;9.182;2022-10-31T08:05:25;14.10;76.60
20066;DHT22;10193;48.884;9.182;2022-10-31T08:07:53;14.10;76.60
20066;DHT22;10193;48.884;9.182;2022-10-31T08:10:20;14.20;76.70
20066;DHT22;10193;48.884;9.182;2022-10-31T08:12:47;14.30;76.90
20066;DHT22;10193;48.884;9.182;2022-10-31T08:15:13;14.30;76.90
20066;DHT22;10193;48.884;9.182;2022-10-31T08:17:40;14.40;76.90
20066;DHT22;10193;48.884;9.182;2022-10-31T08:20:08;14.50;77.00
20066;DHT22;10193;48.884;9.182;2022-10-31T08:22:34;14.50;77.00
20066;DHT22;10193;48.884;9.182;2022-10-31T08:25:03;14.60;77.00
20066;DHT22;10193;48.884;9.182;2022-10-31T08:27:29;14.70;77.00
20066;DHT22;10193;48.884;9.182;2022-10-31T08:29:56;14.70;76.90
20066;DHT22;10193;48.884;9.182;2022-10-31T08:32:23;14.80;76.90
20066;DHT22;10193;48.884;9.182;2022-10-31T08:34:50;14.80;77.50
20066;DHT22;10193;48.884;9.182;2022-10-31T08:37:17;14.80;76.60
20066;DHT22;10193;48.884;9.182;2022-10-31T08:39:45;14.90;76.60
20066;DHT22;10193;48.884;9.182;2022-10-31T08:42:13;14.90;76.50
20066;DHT22;10193;48.884;9.182;2022-10-31T08:44:40;15.00;76.60
20066;DHT22;10193;48.884;9.182;2022-10-31T08:47:06;15.10;76.70
20066;DHT22;10193;48.884;9.182;2022-10-31T08:49:33;15.10;76.60
20066;DHT22;10193;48.884;9.182;2022-10-31T08:52:00;15.10;76.60
20066;DHT22;10193;48.884;9.182;2022-10-31T08:54:26;15.10;76.60
20066;DHT22;10193;48.884;9.182;2022-10-31T08:56:54;15.20;76.60
20066;DHT22;10193;48.884;9.182;2022-10-31T08:59:22;15.20;76.50
20066;DHT22;10193;48.884;9.182;2022-10-31T09:01:49;15.30;76.40
20066;DHT22;10193;48.884;9.182;2022-10-31T09:04:16;15.30;76.30
20066;DHT22;10193;48.884;9.182;2022-10-31T09:06:42;15.30;77.20
20066;DHT22;10193;48.884;9.182;2022-10-31T09:09:09;15.40;76.60
20066;DHT22;10193;48.884;9.182;2022-10-31T09:11:36;15.50;76.80
20066;DHT22;10193;48.884;9.182;2022-10-31T09:14:02;15.40;76.60
20066;DHT22;10193;48.884;9.182;2022-10-31T09:16:30;15.50;76.60
20066;DHT22;10193;48.884;9.182;2022-10-31T09:18:57;15.50;76.60
20066;DHT22;10193;48.884;9.182;2022-10-31T09:21:23;15.60;77.60
20066;DHT22;10193;48.884;9.182;2022-10-31T09:23:50;15.60;76.80
20066;DHT22;10193;48.884;9.182;2022-10-31T09:26:19;15.70;76.90
20066;DHT22;10193;48.884;9.182;2022-10-31T09:28:46;15.80;77.00
20066;DHT22;10193;48.884;9.182;2022-10-31T09:31:13;15.80;76.80
20066;DHT22;10193;48.884;9.182;2022-10-31T09:33:41;15.90;76.70
20066;DHT22;10193;48.884;9.182;2022-10-31T09:36:08;15.90;76.70
20066;DHT22;10193;48.884;9.182;2022-10-31T09:38:34;16.00;76.80
20066;DHT22;10193;48.884;9.182;2022-10-31T09:41:07;16.10;76.80
20066;DHT22;10193;48.884;9.182;2022-10-31T09:43:43;16.10;76.70
20066;DHT22;10193;48.884;9.182;2022-10-31T09:46:20;16.20;76.70
20066;DHT22;10193;48.884;9.182;2022-10-31T09:49:02;16.20;76.50
20066;DHT22;10193;48.884;9.182;2022-10-31T09:51:34;16.30;76.50
20066;DHT22;10193;48.884;9.182;2022-10-31T09:54:06;16.40;76.60
20066;DHT22;10193;48.884;9.182;2022-10-31T09:56:37;16.50;76.50
20066;DHT22;10193;48.884;9.182;2022-10-31T09:59:10;16.60;76.60
20066;DHT22;10193;48.884;9.182;2022-10-31T10:01:43;16.60;76.40
20066;DHT22;10193;48.884;9.182;2022-10-31T10:04:36;16.70;76.20
20066;DHT22;10193;48.884;9.182;2022-10-31T10:07:11;16.70;75.60
20066;DHT22;10193;48.884;9.182;2022-10-31T10:09:40;16.80;75.70
20066;DHT22;10193;48.884;9.182;2022-10-31T10:12:13;16.90;75.80
20066;DHT22;10193;48.884;9.182;2022-10-31T10:14:54;16.90;75.90
20066;DHT22;10193;48.884;9.182;2022-10-31T10:17:31;17.00;75.90
20066;DHT22;10193;48.884;9.182;2022-10-31T10:20:15;17.00;75.90
20066;DHT22;10193;48.884;9.182;2022-10-31T10:22:49;17.10;75.80
20066;DHT22;10193;48.884;9.182;2022-10-31T10:25:22;17.20;76.20
20066;DHT22;10193;48.884;9.182;2022-10-31T10:28:06;17.30;76.00
20066;DHT22;10193;48.884;9.182;2022-10-31T10:30:39;17.30;75.80
20066;DHT22;10193;48.884;9.182;2022-10-31T10:33:11;17.40;75.70
20066;DHT22;10193;48.884;9.182;2022-10-31T10:35:43;17.50;75.70
20066;DHT22;10193;48.884;9.182;2022-10-31T10:38:17;17.50;75.50
20066;DHT22;10193;48.884;9.182;2022-10-31T10:40:45;17.60;75.60
20066;DHT22;10193;48.884;9.182;2022-10-31T10:43:23;17.70;75.70
20066;DHT22;10193;48.884;9.182;2022-10-31T10:46:06;17.80;75.20
20066;DHT22;10193;48.884;9.182;2022-10-31T10:49:00;17.90;75.10
20066;DHT22;10193;48.884;9.182;2022-10-31T10:51:38;17.90;75.20
20066;DHT22;10193;48.884;9.182;2022-10-31T10:54:45;18.00;75.00
20066;DHT22;10193;48.884;9.182;2022-10-31T10:57:32;18.10;74.50
20066;DHT22;10193;48.884;9.182;2022-10-31T11:00:15;18.20;74.70
20066;DHT22;10193;48.884;9.182;2022-10-31T11:02:42;18.20;74.80
20066;DHT22;10193;48.884;9.182;2022-10-31T11:05:15;18.40;75.10
20066;DHT22;10193;48.884;9.182;2022-10-31T11:07:45;18.40;74.70
20066;DHT22;10193;48.884;9.182;2022-10-31T11:10:14;18.50;74.80
20066;DHT22;10193;48.884;9.182;2022-10-31T11:12:42;18.60;74.80
20066;DHT22;10193;48.884;9.182;2022-10-31T11:15:19;18.60;74.50
20066;DHT22;10193;48.884;9.182;2022-10-31T11:17:48;18.70;74.00
20066;DHT22;10193;48.884;9.182;2022-10-31T11:20:26;18.80;74.20
20066;DHT22;10193;48.884;9.182;2022-10-31T11:23:04;18.80;73.60
20066;DHT22;10193;48.884;9.182;2022-10-31T11:25:31;18.90;73.70
20066;DHT22;10193;48.884;9.182;2022-10-31T11:28:02;18.90;73.70
20066;DHT22;10193;48.884;9.182;2022-10-31T11:30:30;19.00;73.40
20066;DHT22;10193;48.884;9.182;2022-10-31T11:32:58;19.00;73.40
20066;DHT22;10193;48.884;9.182;2022-10-31T11:35:25;19.10;73.30
20066;DHT22;10193;48.884;9.182;2022-10-31T11:37:54;19.10;73.10
20066;DHT22;10193;48.884;9.182;2022-10-31T11:40:26;19.10;73.00
20066;DHT22;10193;48.884;9.182;2022-10-31T11:42:56;19.10;72.90
20066;DHT22;10193;48.884;9.182;2022-10-31T11:45:33;19.20;72.90
20066;DHT22;10193;48.884;9.182;2022-10-31T11:48:12;19.20;72.50
20066;DHT22;10193;48.884;9.182;2022-10-31T11:50:41;19.30;73.10
20066;DHT22;10193;48.884;9.182;2022-10-31T11:53:14;19.30;73.00
20066;DHT22;10193;48.884;9.182;2022-10-31T11:55:42;19.30;72.70
20066;DHT22;10193;48.884;9.182;2022-10-31T11:58:21;19.40;72.90
20066;DHT22;10193;48.884;9.182;2022-10-31T12:00:50;19.50;72.30
20066;DHT22;10193;48.884;9.182;2022-10-31T12:03:37;19.50;72.80
20066;DHT22;10193;48.884;9.182;2022-10-31T12:06:09;19.60;71.90
20066;DHT22;10193;48.884;9.182;2022-10-31T12:08:39;19.60;72.20
20066;DHT22;10193;48.884;9.182;2022-10-31T12:11:15;19.70;72.00
20066;DHT22;10193;48.884;9.182;2022-10-31T12:13:52;19.70;71.70
20066;DHT22;10193;48.884;9.182;2022-10-31T12:16:26;19.80;71.60
20066;DHT22;10193;48.884;9.182;2022-10-31T12:18:58;19.80;71.60
20066;DHT22;10193;48.884;9.182;2022-10-31T12:21:44;19.90;71.50
20066;DHT22;10193;48.884;9.182;2022-10-31T12:24:26;19.90;70.40
20066;DHT22;10193;48.884;9.182;2022-10-31T12:27:03;20.00;70.60
20066;DHT22;10193;48.884;9.182;2022-10-31T12:29:46;20.00;70.30
20066;DHT22;10193;48.884;9.182;2022-10-31T12:32:25;20.00;69.80
20066;DHT22;10193;48.884;9.182;2022-10-31T12:35:08;20.10;70.10
20066;DHT22;10193;48.884;9.182;2022-10-31T12:37:51;20.10;69.80
20066;DHT22;10193;48.884;9.182;2022-10-31T12:40:40;20.10;69.80
20066;DHT22;10193;48.884;9.182;2022-10-31T12:43:21;20.20;69.50
20066;DHT22;10193;48.884;9.182;2022-10-31T12:45:53;20.30;69.60
20066;DHT22;10193;48.884;9.182;2022-10-31T12:48:44;20.30;69.60
20066;DHT22;10193;48.884;9.182;2022-10-31T12:51:17;20.30;68.60
20066;DHT22;10193;48.884;9.182;2022-10-31T12:53:56;20.40;69.20
20066;DHT22;10193;48.884;9.182;2022-10-31T12:56:36;20.40;68.70
20066;DHT22;10193;48.884;9.182;2022-10-31T12:59:11;20.50;68.60
20066;DHT22;10193;48.884;9.182;2022-10-31T13:01:43;20.50;68.60
20066;DHT22;10193;48.884;9.182;2022-10-31T13:04:18;20.50;68.60
20066;DHT22;10193;48.884;9.182;2022-10-31T13:06:48;20.50;68.40
20066;DHT22;10193;48.884;9.182;2022-10-31T13:09:19;20.50;68.40
20066;DHT22;10193;48.884;9.182;2022-10-31T13:11:50;20.50;68.00
20066;DHT22;10193;48.884;9.182;2022-10-31T13:14:24;20.50;67.90
20066;DHT22;10193;48.884;9.182;2022-10-31T13:16:52;20.50;67.70
20066;DHT22;10193;48.884;9.182;2022-10-31T13:19:22;20.50;67.90
20066;DHT22;10193;48.884;9.182;2022-10-31T13:21:55;20.40;67.70
20066;DHT22;10193;48.884;9.182;2022-10-31T13:24:31;20.40;67.60
20066;DHT22;10193;48.884;9.182;2022-10-31T13:26:59;20.50;67.60
20066;DHT22;10193;48.884;9.182;2022-10-31T13:29:32;20.40;67.60
20066;DHT22;10193;48.884;9.182;2022-10-31T13:31:59;20.40;67.30
20066;DHT22;10193;48.884;9.182;2022-10-31T13:34:30;20.40;67.50
20066;DHT22;10193;48.884;9.182;2022-10-31T13:37:04;20.40;67.40
20066;DHT22;10193;48.884;9.182;2022-10-31T13:39:41;20.40;67.40
20066;DHT22;10193;48.884;9.182;2022-10-31T13:42:14;20.40;67.20
20066;DHT22;10193;48.884;9.182;2022-10-31T13:44:45;20.40;67.60
20066;DHT22;10193;48.884;9.182;2022-10-31T13:47:23;20.40;67.70
20066;DHT22;10193;48.884;9.182;2022-10-31T13:49:50;20.40;67.30
20066;DHT22;10193;48.884;9.182;2022-10-31T13:52:23;20.40;67.80
20066;DHT22;10193;48.884;9.182;2022-10-31T13:54:52;20.50;67.70
20066;DHT22;10193;48.884;9.182;2022-10-31T13:57:28;20.60;68.60
20066;DHT22;10193;48.884;9.182;2022-10-31T13:59:59;20.60;67.50
20066;DHT22;10193;48.884;9.182;2022-10-31T14:02:28;20.70;67.50
20066;DHT22;10193;48.884;9.182;2022-10-31T14:04:58;20.70;67.40
20066;DHT22;10193;48.884;9.182;2022-10-31T14:07:27;20.80;67.20
20066;DHT22;10193;48.884;9.182;2022-10-31T14:09:57;20.80;66.90
20066;DHT22;10193;48.884;9.182;2022-10-31T14:12:27;20.80;66.60
20066;DHT22;10193;48.884;9.182;2022-10-31T14:14:59;20.80;66.40
20066;DHT22;10193;48.884;9.182;2022-10-31T14:17:28;20.80;66.00
20066;DHT22;10193;48.884;9.182;2022-10-31T14:23:36;20.70;65.30
20066;DHT22;10193;48.884;9.182;2022-10-31T14:26:31;20.70;65.40
20066;DHT22;10193;48.884;9.182;2022-10-31T14:29:00;20.60;65.40
20066;DHT22;10193;48.884;9.182;2022-10-31T14:31:35;20.60;65.70
20066;DHT22;10193;48.884;9.182;2022-10-31T14:34:17;20.60;65.50
20066;DHT22;10193;48.884;9.182;2022-10-31T14:39:39;20.50;65.50
20066;DHT22;10193;48.884;9.182;2022-10-31T14:42:19;20.40;65.40
20066;DHT22;10193;48.884;9.182;2022-10-31T14:45:05;20.40;65.50
20066;DHT22;10193;48.884;9.182;2022-10-31T14:47:43;20.40;65.70
20066;DHT22;10193;48.884;9.182;2022-10-31T14:50:23;20.30;65.90
20066;DHT22;10193;48.884;9.182;2022-10-31T14:52:53;20.30;65.90
20066;DHT22;10193;48.884;9.182;2022-10-31T14:55:21;20.30;66.10
20066;DHT22;10193;48.884;9.182;2022-10-31T14:57:52;20.30;66.10
20066;DHT22;10193;48.884;9.182;2022-10-31T15:00:21;20.30;66.10
20066;DHT22;10193;48.884;9.182;2022-10-31T15:02:58;20.20;66.10
20066;DHT22;10193;48.884;9.182;2022-10-31T15:05:29;20.20;66.20
20066;DHT22;10193;48.884;9.182;2022-10-31T15:07:58;20.20;66.30
20066;DHT22;10193;48.884;9.182;2022-10-31T15:10:27;20.20;66.50
20066;DHT22;10193;48.884;9.182;2022-10-31T15:12:55;20.20;66.60
20066;DHT22;10193;48.884;9.182;2022-10-31T15:15:23;20.20;66.60
20066;DHT22;10193;48.884;9.182;2022-10-31T15:17:55;20.10;66.50
20066;DHT22;10193;48.884;9.182;2022-10-31T15:20:23;20.10;66.60
20066;DHT22;10193;48.884;9.182;2022-10-31T15:22:52;20.10;66.60
20066;DHT22;10193;48.884;9.182;2022-10-31T15:25:23;20.00;66.70
20066;DHT22;10193;48.884;9.182;2022-10-31T15:27:51;20.00;66.60
20066;DHT22;10193;48.884;9.182;2022-10-31T15:30:20;20.00;66.60
20066;DHT22;10193;48.884;9.182;2022-10-31T15:32:47;20.00;66.60
20066;DHT22;10193;48.884;9.182;2022-10-31T15:35:22;20.00;66.60
20066;DHT22;10193;48.884;9.182;2022-10-31T15:37:51;19.90;66.50
20066;DHT22;10193;48.884;9.182;2022-10-31T15:40:19;19.90;66.40
20066;DHT22;10193;48.884;9.182;2022-10-31T15:42:50;19.80;66.50
20066;DHT22;10193;48.884;9.182;2022-10-31T15:45:20;19.70;66.50
20066;DHT22;10193;48.884;9.182;2022-10-31T15:47:53;19.60;66.50
20066;DHT22;10193;48.884;9.182;2022-10-31T15:50:25;19.60;66.70
20066;DHT22;10193;48.884;9.182;2022-10-31T15:52:53;19.50;66.70
20066;DHT22;10193;48.884;9.182;2022-10-31T15:55:22;19.40;66.60
20066;DHT22;10193;48.884;9.182;2022-10-31T15:57:51;19.40;66.80